Time,TemperatureF,DewpointF,PressureIn,WindDirection,WindDirectionDegrees,WindSpeedMPH,WindSpeedGustMPH,Humidity,HourlyPrecipIn,Conditions,Clouds,dailyrainin,SolarRadiationWatts/m^2,SoftwareType,DateUTC
2013-10-25 00:03:00,38.4,36.0,29.99,West,263,4.0,-999.0,90,-99.99,,,0.00,0,weatherlink.com 1.10,2013-10-25 04:03:00,
2013-10-25 00:18:00,38.4,36.0,29.99,WSW,255,1.0,-999.0,89,-99.99,,,0.00,0,weatherlink.com 1.10,2013-10-25 04:18:00,
2013-10-25 00:33:00,38.4,36.0,30.00,WSW,255,0.0,-999.0,89,-99.99,,,0.00,0,weatherlink.com 1.10,2013-10-25 04:33:00,
2013-10-25 00:48:00,38.4,36.0,30.00,WSW,238,2.0,-999.0,89,-99.99,,,0.00,0,weatherlink.com 1.10,2013-10-25 04:48:00,
2013-10-25 01:03:00,38.4,36.0,30.01,WSW,238,1.0,-999.0,89,-99.99,,,0.00,0,weatherlink.com 1.10,2013-10-25 05:03:00,
2013-10-25 01:18:00,38.6,36.0,30.01,SW,231,1.0,-999.0,89,-99.99,,,0.00,0,weatherlink.com 1.10,2013-10-25 05:18:00,
2013-10-25 01:33:00,38.8,36.0,30.02,SW,231,0.0,-999.0,90,-99.99,,,0.00,0,weatherlink.com 1.10,2013-10-25 05:33:00,
2013-10-25 01:48:00,39.0,36.0,30.02,SW,232,1.0,-999.0,90,-99.99,,,0.00,0,weatherlink.com 1.10,2013-10-25 05:48:00,
2013-10-25 02:03:00,39.2,37.0,30.02,West,268,8.0,-999.0,90,-99.99,,,0.00,0,weatherlink.com 1.10,2013-10-25 06:03:00,
2013-10-25 02:18:00,39.4,37.0,30.02,WNW,282,5.0,-999.0,91,-99.99,,,0.00,0,weatherlink.com 1.10,2013-10-25 06:18:00,
2013-10-25 02:33:00,39.4,37.0,30.02,West,276,2.0,-999.0,91,-99.99,,,0.00,0,weatherlink.com 1.10,2013-10-25 06:33:00,
2013-10-25 02:48:00,39.4,37.0,30.03,SW,217,0.0,-999.0,91,-99.99,,,0.00,0,weatherlink.com 1.10,2013-10-25 06:48:00,
2013-10-25 03:03:00,39.3,37.0,30.04,WSW,238,2.0,-999.0,91,-99.99,,,0.00,0,weatherlink.com 1.10,2013-10-25 07:03:00,
2013-10-25 03:18:00,39.2,37.0,30.04,WSW,248,1.0,-999.0,91,-99.99,,,0.00,0,weatherlink.com 1.10,2013-10-25 07:18:00,
2013-10-25 03:33:00,38.9,37.0,30.04,SW,223,4.0,-999.0,91,-99.99,,,0.00,0,weatherlink.com 1.10,2013-10-25 07:33:00,
2013-10-25 03:48:00,38.8,36.0,30.05,WSW,255,4.0,-999.0,91,-99.99,,,0.00,0,weatherlink.com 1.10,2013-10-25 07:48:00,
2013-10-25 04:03:00,38.8,36.0,30.05,West,276,1.0,-999.0,91,-99.99,,,0.00,0,weatherlink.com 1.10,2013-10-25 08:03:00,
2013-10-25 04:18:00,38.6,37.0,30.05,WSW,251,1.0,-999.0,92,-99.99,,,0.00,0,weatherlink.com 1.10,2013-10-25 08:18:00,
2013-10-25 04:33:00,38.5,36.0,30.05,SSW,213,8.0,-999.0,92,-99.99,,,0.00,0,weatherlink.com 1.10,2013-10-25 08:33:00,
2013-10-25 04:49:00,38.3,36.0,30.05,SW,235,5.0,-999.0,92,-99.99,,,0.00,0,weatherlink.com 1.10,2013-10-25 08:49:00,
2013-10-25 05:04:00,38.1,36.0,30.06,WSW,247,6.0,-999.0,92,-99.99,,,0.00,0,weatherlink.com 1.10,2013-10-25 09:04:00,
2013-10-25 05:19:00,38.1,36.0,30.06,West,261,7.0,-999.0,92,-99.99,,,0.00,0,weatherlink.com 1.10,2013-10-25 09:19:00,
2013-10-25 05:34:00,38.0,36.0,30.06,SW,221,5.0,-999.0,92,-99.99,,,0.00,0,weatherlink.com 1.10,2013-10-25 09:34:00,
2013-10-25 05:49:00,38.0,36.0,30.07,SW,215,4.0,-999.0,93,-99.99,,,0.00,0,weatherlink.com 1.10,2013-10-25 09:49:00,
2013-10-25 06:04:00,37.9,36.0,30.08,WSW,240,5.0,-999.0,93,-99.99,,,0.00,0,weatherlink.com 1.10,2013-10-25 10:04:00,
2013-10-25 06:19:00,37.8,36.0,30.08,WSW,243,4.0,-999.0,92,-99.99,,,0.00,0,weatherlink.com 1.10,2013-10-25 10:19:00,
2013-10-25 06:34:00,37.6,36.0,30.08,WSW,256,4.0,-999.0,92,-99.99,,,0.00,0,weatherlink.com 1.10,2013-10-25 10:34:00,
2013-10-25 06:49:00,37.5,36.0,30.09,West,263,2.0,-999.0,93,-99.99,,,0.00,0,weatherlink.com 1.10,2013-10-25 10:49:00,
2013-10-25 07:04:00,37.6,36.0,30.09,West,273,0.0,-999.0,93,-99.99,,,0.00,0,weatherlink.com 1.10,2013-10-25 11:04:00,
2013-10-25 07:19:00,37.6,36.0,30.10,West,266,1.0,-999.0,93,-99.99,,,0.00,0,weatherlink.com 1.10,2013-10-25 11:19:00,
2013-10-25 07:34:00,37.5,36.0,30.10,West,264,6.0,-999.0,93,-99.99,,,0.00,0,weatherlink.com 1.10,2013-10-25 11:34:00,
2013-10-25 07:49:00,37.3,36.0,30.11,WSW,252,6.0,-999.0,93,-99.99,,,0.00,7,weatherlink.com 1.10,2013-10-25 11:49:00,
2013-10-25 08:04:00,37.1,35.0,30.12,WSW,247,5.0,-999.0,92,-99.99,,,0.00,18,weatherlink.com 1.10,2013-10-25 12:04:00,
2013-10-25 08:19:00,36.9,35.0,30.12,West,275,4.0,-999.0,93,-99.99,,,0.00,23,weatherlink.com 1.10,2013-10-25 12:19:00,
2013-10-25 08:34:00,36.8,35.0,30.13,West,263,3.0,-999.0,93,-99.99,,,0.00,113,weatherlink.com 1.10,2013-10-25 12:34:00,
2013-10-25 08:49:00,37.3,36.0,30.14,WSW,256,2.0,-999.0,93,-99.99,,,0.00,148,weatherlink.com 1.10,2013-10-25 12:49:00,
2013-10-25 09:04:00,38.3,37.0,30.14,WSW,248,5.0,-999.0,93,-99.99,,,0.00,193,weatherlink.com 1.10,2013-10-25 13:04:00,
2013-10-25 09:19:00,39.3,38.0,30.14,WSW,251,5.0,-999.0,93,-99.99,,,0.00,229,weatherlink.com 1.10,2013-10-25 13:19:00,
2013-10-25 09:34:00,40.4,39.0,30.14,WSW,252,4.0,-999.0,93,-99.99,,,0.00,267,weatherlink.com 1.10,2013-10-25 13:34:00,
2013-10-25 09:49:00,40.9,39.0,30.15,West,266,9.0,-999.0,91,-99.99,,,0.00,323,weatherlink.com 1.10,2013-10-25 13:49:00,
2013-10-25 10:04:00,41.7,39.0,30.14,West,268,8.0,-999.0,90,-99.99,,,0.00,371,weatherlink.com 1.10,2013-10-25 14:04:00,
2013-10-25 10:19:00,42.8,39.0,30.15,WSW,242,10.0,-999.0,86,-99.99,,,0.00,424,weatherlink.com 1.10,2013-10-25 14:19:00,
2013-10-25 10:34:00,43.7,38.0,30.15,West,268,7.0,-999.0,81,-99.99,,,0.00,343,weatherlink.com 1.10,2013-10-25 14:34:00,
2013-10-25 10:49:00,44.2,37.0,30.16,West,260,8.0,-999.0,77,-99.99,,,0.00,573,weatherlink.com 1.10,2013-10-25 14:49:00,
2013-10-25 11:05:00,44.9,37.0,30.16,WSW,240,7.0,-999.0,73,-99.99,,,0.00,318,weatherlink.com 1.10,2013-10-25 15:05:00,
2013-10-25 11:20:00,45.3,36.0,30.16,WSW,252,6.0,-999.0,69,-99.99,,,0.00,204,weatherlink.com 1.10,2013-10-25 15:20:00,
2013-10-25 11:35:00,45.5,35.0,30.16,West,269,7.0,-999.0,68,-99.99,,,0.00,260,weatherlink.com 1.10,2013-10-25 15:35:00,
2013-10-25 11:50:00,45.3,35.0,30.17,WSW,246,8.0,-999.0,68,-99.99,,,0.00,171,weatherlink.com 1.10,2013-10-25 15:50:00,
2013-10-25 12:05:00,45.2,36.0,30.16,West,273,6.0,-999.0,70,-99.99,,,0.00,244,weatherlink.com 1.10,2013-10-25 16:05:00,
2013-10-25 12:20:00,45.1,36.0,30.16,West,274,10.0,-999.0,70,-99.99,,,0.00,146,weatherlink.com 1.10,2013-10-25 16:20:00,
2013-10-25 12:35:00,45.1,37.0,30.16,West,259,8.0,-999.0,72,-99.99,,,0.00,220,weatherlink.com 1.10,2013-10-25 16:35:00,
2013-10-25 12:50:00,45.8,37.0,30.15,SW,232,5.0,-999.0,71,-99.99,,,0.00,267,weatherlink.com 1.10,2013-10-25 16:50:00,
2013-10-25 13:05:00,46.4,37.0,30.14,West,280,16.0,-999.0,69,-99.99,,,0.00,666,weatherlink.com 1.10,2013-10-25 17:05:00,
2013-10-25 13:20:00,47.4,37.0,30.14,West,267,8.0,-999.0,68,-99.99,,,0.00,577,weatherlink.com 1.10,2013-10-25 17:20:00,
2013-10-25 13:35:00,48.1,38.0,30.14,SW,229,10.0,-999.0,67,-99.99,,,0.00,536,weatherlink.com 1.10,2013-10-25 17:35:00,
2013-10-25 13:50:00,47.8,36.0,30.14,NW,312,10.0,-999.0,65,-99.99,,,0.00,114,weatherlink.com 1.10,2013-10-25 17:50:00,
2013-10-25 14:05:00,48.1,38.0,30.13,West,274,6.0,-999.0,68,-99.99,,,0.00,649,weatherlink.com 1.10,2013-10-25 18:05:00,
2013-10-25 14:20:00,49.4,38.0,30.13,West,267,6.0,-999.0,66,-99.99,,,0.00,559,weatherlink.com 1.10,2013-10-25 18:20:00,
2013-10-25 14:35:00,50.1,38.0,30.12,South,180,10.0,-999.0,64,-99.99,,,0.00,554,weatherlink.com 1.10,2013-10-25 18:35:00,
2013-10-25 14:50:00,50.5,38.0,30.12,West,279,8.0,-999.0,63,-99.99,,,0.00,512,weatherlink.com 1.10,2013-10-25 18:50:00,
2013-10-25 15:05:00,48.2,38.0,30.14,WNW,298,11.0,-999.0,67,-99.99,,,0.00,83,weatherlink.com 1.10,2013-10-25 19:05:00,
2013-10-25 15:35:00,44.7,40.0,30.13,West,264,4.0,-999.0,82,-99.99,,,0.00,114,weatherlink.com 1.10,2013-10-25 19:35:00,
2013-10-25 15:50:00,45.3,40.0,30.14,West,271,6.0,-999.0,81,-99.99,,,0.00,39,weatherlink.com 1.10,2013-10-25 19:50:00,
2013-10-25 16:05:00,45.2,39.0,30.14,West,265,1.0,-999.0,80,-99.99,,,0.00,40,weatherlink.com 1.10,2013-10-25 20:05:00,
2013-10-25 16:20:00,45.1,39.0,30.14,West,274,3.0,-999.0,79,-99.99,,,0.00,56,weatherlink.com 1.10,2013-10-25 20:20:00,
2013-10-25 16:35:00,45.2,39.0,30.14,West,264,6.0,-999.0,78,-99.99,,,0.00,113,weatherlink.com 1.10,2013-10-25 20:35:00,
2013-10-25 16:50:00,45.6,39.0,30.14,West,273,4.0,-999.0,77,-99.99,,,0.00,56,weatherlink.com 1.10,2013-10-25 20:50:00,
2013-10-25 17:05:00,45.7,39.0,30.14,West,272,1.0,-999.0,76,-99.99,,,0.00,62,weatherlink.com 1.10,2013-10-25 21:05:00,
2013-10-25 17:20:00,45.8,39.0,30.14,West,272,1.0,-999.0,76,-99.99,,,0.00,76,weatherlink.com 1.10,2013-10-25 21:20:00,
2013-10-25 17:35:00,45.9,39.0,30.14,West,272,0.0,-999.0,77,-99.99,,,0.00,33,weatherlink.com 1.10,2013-10-25 21:35:00,
2013-10-25 17:50:00,45.7,39.0,30.14,West,272,0.0,-999.0,77,-99.99,,,0.00,16,weatherlink.com 1.10,2013-10-25 21:50:00,
2013-10-25 18:05:00,45.1,39.0,30.14,West,272,2.0,-999.0,79,-99.99,,,0.00,0,weatherlink.com 1.10,2013-10-25 22:05:00,
2013-10-25 18:20:00,44.2,39.0,30.14,SSW,201,3.0,-999.0,82,-99.99,,,0.00,0,weatherlink.com 1.10,2013-10-25 22:20:00,
2013-10-25 18:35:00,43.8,38.0,30.14,SSW,200,0.0,-999.0,81,-99.99,,,0.00,0,weatherlink.com 1.10,2013-10-25 22:35:00,
2013-10-25 18:50:00,43.9,37.0,30.14,SSW,203,0.0,-999.0,78,-99.99,,,0.00,0,weatherlink.com 1.10,2013-10-25 22:50:00,
2013-10-25 19:05:00,44.2,37.0,30.15,WSW,256,1.0,-999.0,76,-99.99,,,0.00,0,weatherlink.com 1.10,2013-10-25 23:05:00,
2013-10-25 19:20:00,43.8,37.0,30.16,WSW,255,5.0,-999.0,76,-99.99,,,0.00,0,weatherlink.com 1.10,2013-10-25 23:20:00,
2013-10-25 19:35:00,43.2,36.0,30.15,WSW,257,0.0,-999.0,77,-99.99,,,0.00,0,weatherlink.com 1.10,2013-10-25 23:35:00,
2013-10-25 19:50:00,42.9,36.0,30.16,WSW,238,4.0,-999.0,78,-99.99,,,0.00,0,weatherlink.com 1.10,2013-10-25 23:50:00,
2013-10-25 20:05:00,42.8,37.0,30.16,West,281,11.0,-999.0,79,-99.99,,,0.00,0,weatherlink.com 1.10,2013-10-26 00:05:00,
2013-10-25 20:20:00,42.9,37.0,30.16,WSW,250,5.0,-999.0,80,-99.99,,,0.00,0,weatherlink.com 1.10,2013-10-26 00:20:00,
2013-10-25 20:35:00,42.5,37.0,30.15,WSW,252,0.0,-999.0,82,-99.99,,,0.00,0,weatherlink.com 1.10,2013-10-26 00:35:00,
2013-10-25 20:50:00,42.2,37.0,30.16,WSW,252,1.0,-999.0,83,-99.99,,,0.00,0,weatherlink.com 1.10,2013-10-26 00:50:00,
2013-10-25 21:05:00,41.6,37.0,30.15,SW,217,0.0,-999.0,84,-99.99,,,0.00,0,weatherlink.com 1.10,2013-10-26 01:05:00,
2013-10-25 21:20:00,41.3,37.0,30.15,WSW,241,1.0,-999.0,84,-99.99,,,0.00,0,weatherlink.com 1.10,2013-10-26 01:20:00,
2013-10-25 21:36:00,40.9,37.0,30.15,SW,234,0.0,-999.0,85,-99.99,,,0.00,0,weatherlink.com 1.10,2013-10-26 01:36:00,
2013-10-25 21:50:00,40.6,37.0,30.15,SW,235,0.0,-999.0,85,-99.99,,,0.00,0,weatherlink.com 1.10,2013-10-26 01:50:00,
2013-10-25 22:05:00,40.3,37.0,30.15,SW,236,0.0,-999.0,86,-99.99,,,0.00,0,weatherlink.com 1.10,2013-10-26 02:05:00,
2013-10-25 22:20:00,40.1,36.0,30.15,WSW,238,0.0,-999.0,86,-99.99,,,0.00,0,weatherlink.com 1.10,2013-10-26 02:20:00,
2013-10-25 22:36:00,40.0,36.0,30.15,WSW,237,0.0,-999.0,86,-99.99,,,0.00,0,weatherlink.com 1.10,2013-10-26 02:36:00,
2013-10-25 22:50:00,40.5,37.0,30.14,SW,232,1.0,-999.0,87,-99.99,,,0.00,0,weatherlink.com 1.10,2013-10-26 02:50:00,
2013-10-25 23:05:00,40.7,37.0,30.14,South,190,1.0,-999.0,86,-99.99,,,0.00,0,weatherlink.com 1.10,2013-10-26 03:05:00,
2013-10-25 23:20:00,41.2,37.0,30.14,WSW,238,4.0,-999.0,85,-99.99,,,0.00,0,weatherlink.com 1.10,2013-10-26 03:20:00,
2013-10-25 23:35:00,41.6,37.0,30.13,SSW,207,1.0,-999.0,84,-99.99,,,0.00,0,weatherlink.com 1.10,2013-10-26 03:35:00,
2013-10-25 23:50:00,41.8,37.0,30.13,SSW,197,5.0,-999.0,83,-99.99,,,0.00,0,weatherlink.com 1.10,2013-10-26 03:50:00,